sensor_id;sensor_type;location;lat;lon;timestamp;pressure;altitude;pressure_sealevel;temperature;humidity
71573;BME280;59408;51.032;9.410;2024-01-25T00:02:20;99902.41;;;6.24;86.75
71573;BME280;59408;51.032;9.410;2024-01-25T00:04:48;99906.19;;;6.23;87.15
71573;BME280;59408;51.032;9.410;2024-01-25T00:07:15;99907.28;;;6.22;87.38
71573;BME280;59408;51.032;9.410;2024-01-25T00:09:42;99894.91;;;6.16;87.89
71573;BME280;59408;51.032;9.410;2024-01-25T00:12:08;99894.16;;;6.10;87.74
71573;BME280;59408;51.032;9.410;2024-01-25T00:14:35;99889.88;;;6.04;88.10
71573;BME280;59408;51.032;9.410;2024-01-25T00:17:01;99892.06;;;6.02;88.28
71573;BME280;59408;51.032;9.410;2024-01-25T00:19:31;99892.66;;;5.99;88.36
71573;BME280;59408;51.032;9.410;2024-01-25T00:21:59;99910.47;;;6.05;87.38
71573;BME280;59408;51.032;9.410;2024-01-25T00:24:28;99904.88;;;5.97;88.24
71573;BME280;59408;51.032;9.410;2024-01-25T00:26:54;99903.25;;;5.96;88.17
71573;BME280;59408;51.032;9.410;2024-01-25T00:29:21;99913.06;;;5.92;88.39
71573;BME280;59408;51.032;9.410;2024-01-25T00:31:47;99909.81;;;5.90;88.67
71573;BME280;59408;51.032;9.410;2024-01-25T00:34:14;99909.53;;;5.91;88.14
71573;BME280;59408;51.032;9.410;2024-01-25T00:36:41;99903.00;;;5.92;87.51
71573;BME280;59408;51.032;9.410;2024-01-25T00:39:10;99915.22;;;5.90;87.40
71573;BME280;59408;51.032;9.410;2024-01-25T00:41:37;99916.50;;;5.97;87.14
71573;BME280;59408;51.032;9.410;2024-01-25T00:44:04;99915.81;;;5.87;87.79
71573;BME280;59408;51.032;9.410;2024-01-25T00:46:31;99914.78;;;5.83;88.54
71573;BME280;59408;51.032;9.410;2024-01-25T00:48:58;99916.34;;;5.84;88.28
71573;BME280;59408;51.032;9.410;2024-01-25T00:51:25;99913.16;;;5.82;88.24
71573;BME280;59408;51.032;9.410;2024-01-25T00:53:52;99914.25;;;5.81;87.88
71573;BME280;59408;51.032;9.410;2024-01-25T00:56:21;99911.47;;;5.86;87.52
71573;BME280;59408;51.032;9.410;2024-01-25T00:58:48;99901.81;;;5.80;87.94
71573;BME280;59408;51.032;9.410;2024-01-25T01:01:15;99899.13;;;5.74;88.27
71573;BME280;59408;51.032;9.410;2024-01-25T01:03:42;99916.50;;;5.68;88.65
71573;BME280;59408;51.032;9.410;2024-01-25T01:06:09;99910.28;;;5.68;88.71
71573;BME280;59408;51.032;9.410;2024-01-25T01:08:37;99923.34;;;5.61;89.19
71573;BME280;59408;51.032;9.410;2024-01-25T01:11:03;99922.00;;;5.63;88.80
71573;BME280;59408;51.032;9.410;2024-01-25T01:13:31;99927.69;;;5.62;88.72
71573;BME280;59408;51.032;9.410;2024-01-25T01:15:58;99928.75;;;5.61;88.58
71573;BME280;59408;51.032;9.410;2024-01-25T01:18:24;99915.47;;;5.64;88.77
71573;BME280;59408;51.032;9.410;2024-01-25T01:20:51;99935.22;;;5.65;88.87
71573;BME280;59408;51.032;9.410;2024-01-25T01:23:18;99926.88;;;5.61;88.96
71573;BME280;59408;51.032;9.410;2024-01-25T01:25:44;99920.13;;;5.59;89.26
71573;BME280;59408;51.032;9.410;2024-01-25T01:28:17;99920.41;;;5.57;89.25
71573;BME280;59408;51.032;9.410;2024-01-25T01:30:45;99917.41;;;5.59;89.08
71573;BME280;59408;51.032;9.410;2024-01-25T01:33:12;99919.09;;;5.55;89.52
71573;BME280;59408;51.032;9.410;2024-01-25T01:35:39;99916.59;;;5.58;88.86
71573;BME280;59408;51.032;9.410;2024-01-25T01:38:06;99920.97;;;5.54;89.09
71573;BME280;59408;51.032;9.410;2024-01-25T01:40:32;99916.38;;;5.55;89.56
71573;BME280;59408;51.032;9.410;2024-01-25T01:42:59;99920.19;;;5.54;89.56
71573;BME280;59408;51.032;9.410;2024-01-25T01:45:26;99921.47;;;5.56;89.37
71573;BME280;59408;51.032;9.410;2024-01-25T01:47:54;99911.53;;;5.52;89.66
71573;BME280;59408;51.032;9.410;2024-01-25T01:50:22;99917.94;;;5.61;89.51
71573;BME280;59408;51.032;9.410;2024-01-25T01:52:50;99912.25;;;5.62;89.25
71573;BME280;59408;51.032;9.410;2024-01-25T01:55:17;99928.72;;;5.66;89.08
71573;BME280;59408;51.032;9.410;2024-01-25T01:57:43;99915.75;;;5.63;89.26
71573;BME280;59408;51.032;9.410;2024-01-25T02:00:11;99919.78;;;5.65;89.23
71573;BME280;59408;51.032;9.410;2024-01-25T02:02:40;99919.56;;;5.62;89.65
71573;BME280;59408;51.032;9.410;2024-01-25T02:05:09;99912.19;;;5.67;89.28
71573;BME280;59408;51.032;9.410;2024-01-25T02:07:36;99919.50;;;5.67;89.84
71573;BME280;59408;51.032;9.410;2024-01-25T02:10:04;99916.25;;;5.65;89.71
71573;BME280;59408;51.032;9.410;2024-01-25T02:12:31;99916.56;;;5.63;90.22
71573;BME280;59408;51.032;9.410;2024-01-25T02:14:57;99932.22;;;5.66;89.98
71573;BME280;59408;51.032;9.410;2024-01-25T02:17:23;99919.19;;;5.73;89.62
71573;BME280;59408;51.032;9.410;2024-01-25T02:19:50;99916.75;;;5.72;90.47
71573;BME280;59408;51.032;9.410;2024-01-25T02:22:19;99924.06;;;5.71;91.10
71573;BME280;59408;51.032;9.410;2024-01-25T02:24:46;99918.69;;;5.66;91.61
71573;BME280;59408;51.032;9.410;2024-01-25T02:27:13;99933.66;;;5.59;92.29
71573;BME280;59408;51.032;9.410;2024-01-25T02:29:39;99927.72;;;5.57;92.92
71573;BME280;59408;51.032;9.410;2024-01-25T02:32:06;99919.91;;;5.50;93.64
71573;BME280;59408;51.032;9.410;2024-01-25T02:34:32;99926.41;;;5.49;94.11
71573;BME280;59408;51.032;9.410;2024-01-25T02:36:59;99928.59;;;5.47;94.36
71573;BME280;59408;51.032;9.410;2024-01-25T02:39:27;99931.03;;;5.49;95.05
71573;BME280;59408;51.032;9.410;2024-01-25T02:41:53;99928.91;;;5.46;95.99
71573;BME280;59408;51.032;9.410;2024-01-25T02:44:20;99927.84;;;5.42;97.26
71573;BME280;59408;51.032;9.410;2024-01-25T02:46:46;99939.00;;;5.35;98.03
71573;BME280;59408;51.032;9.410;2024-01-25T02:49:13;99933.06;;;5.33;98.21
71573;BME280;59408;51.032;9.410;2024-01-25T02:51:40;99944.16;;;5.31;98.72
71573;BME280;59408;51.032;9.410;2024-01-25T02:54:06;99945.22;;;5.30;99.49
71573;BME280;59408;51.032;9.410;2024-01-25T02:56:34;99950.38;;;5.32;98.97
71573;BME280;59408;51.032;9.410;2024-01-25T02:59:00;99937.69;;;5.27;99.71
71573;BME280;59408;51.032;9.410;2024-01-25T03:01:27;99940.69;;;5.26;100.00
71573;BME280;59408;51.032;9.410;2024-01-25T03:03:53;99951.50;;;5.26;100.00
71573;BME280;59408;51.032;9.410;2024-01-25T03:06:20;99943.09;;;5.27;100.00
71573;BME280;59408;51.032;9.410;2024-01-25T03:08:46;99942.00;;;5.28;100.00
71573;BME280;59408;51.032;9.410;2024-01-25T03:11:13;99944.47;;;5.25;100.00
71573;BME280;59408;51.032;9.410;2024-01-25T03:13:41;99958.00;;;5.20;100.00
71573;BME280;59408;51.032;9.410;2024-01-25T03:16:07;99954.53;;;5.14;100.00
71573;BME280;59408;51.032;9.410;2024-01-25T03:18:34;99958.59;;;5.12;100.00
71573;BME280;59408;51.032;9.410;2024-01-25T03:21:00;99964.56;;;5.14;100.00
71573;BME280;59408;51.032;9.410;2024-01-25T03:23:27;99965.91;;;5.11;100.00
71573;BME280;59408;51.032;9.410;2024-01-25T03:25:53;99961.59;;;5.10;100.00
71573;BME280;59408;51.032;9.410;2024-01-25T03:28:20;99964.59;;;5.09;100.00
71573;BME280;59408;51.032;9.410;2024-01-25T03:30:48;99974.06;;;5.06;100.00
71573;BME280;59408;51.032;9.410;2024-01-25T03:33:14;99970.00;;;5.09;100.00
71573;BME280;59408;51.032;9.410;2024-01-25T03:35:41;99968.09;;;5.09;100.00
71573;BME280;59408;51.032;9.410;2024-01-25T03:38:07;99976.22;;;5.09;100.00
71573;BME280;59408;51.032;9.410;2024-01-25T03:40:34;99982.44;;;5.10;100.00
71573;BME280;59408;51.032;9.410;2024-01-25T03:43:00;99984.84;;;5.11;100.00
71573;BME280;59408;51.032;9.410;2024-01-25T03:45:44;100000.19;;;5.21;100.00
71573;BME280;59408;51.032;9.410;2024-01-25T03:48:12;99998.31;;;5.21;100.00
71573;BME280;59408;51.032;9.410;2024-01-25T03:50:38;99995.06;;;5.19;100.00
71573;BME280;59408;51.032;9.410;2024-01-25T03:53:05;100003.72;;;5.21;100.00
71573;BME280;59408;51.032;9.410;2024-01-25T03:55:32;100018.03;;;5.22;99.83
71573;BME280;59408;51.032;9.410;2024-01-25T03:57:58;100001.81;;;5.22;99.06
71573;BME280;59408;51.032;9.410;2024-01-25T04:00:25;99997.75;;;5.24;98.91
71573;BME280;59408;51.032;9.410;2024-01-25T04:02:51;99998.84;;;5.23;98.75
71573;BME280;59408;51.032;9.410;2024-01-25T04:05:19;100009.41;;;5.20;97.78
71573;BME280;59408;51.032;9.410;2024-01-25T04:07:46;100015.34;;;5.22;96.66
71573;BME280;59408;51.032;9.410;2024-01-25T04:10:12;100021.06;;;5.15;96.54
71573;BME280;59408;51.032;9.410;2024-01-25T04:12:39;100017.56;;;5.15;96.24
71573;BME280;59408;51.032;9.410;2024-01-25T04:15:06;100022.69;;;5.16;96.04
71573;BME280;59408;51.032;9.410;2024-01-25T04:17:32;100022.69;;;5.16;95.96
71573;BME280;59408;51.032;9.410;2024-01-25T04:19:59;100014.56;;;5.16;96.18
71573;BME280;59408;51.032;9.410;2024-01-25T04:22:27;100025.72;;;5.05;96.66
71573;BME280;59408;51.032;9.410;2024-01-25T04:24:54;100019.28;;;4.95;97.32
71573;BME280;59408;51.032;9.410;2024-01-25T04:27:20;100011.44;;;4.94;97.26
71573;BME280;59408;51.032;9.410;2024-01-25T04:29:46;100006.78;;;5.05;94.83
71573;BME280;59408;51.032;9.410;2024-01-25T04:32:13;100011.38;;;5.09;93.69
71573;BME280;59408;51.032;9.410;2024-01-25T04:34:40;100008.41;;;5.06;94.40
71573;BME280;59408;51.032;9.410;2024-01-25T04:37:07;100015.72;;;5.05;94.62
71573;BME280;59408;51.032;9.410;2024-01-25T04:39:34;100019.53;;;4.99;95.15
71573;BME280;59408;51.032;9.410;2024-01-25T04:42:01;100025.75;;;4.94;94.86
71573;BME280;59408;51.032;9.410;2024-01-25T04:44:27;100029.81;;;4.92;94.49
71573;BME280;59408;51.032;9.410;2024-01-25T04:46:54;100027.41;;;4.90;94.67
71573;BME280;59408;51.032;9.410;2024-01-25T04:49:20;100015.53;;;4.91;94.51
71573;BME280;59408;51.032;9.410;2024-01-25T04:51:47;100011.44;;;4.94;94.17
71573;BME280;59408;51.032;9.410;2024-01-25T04:54:13;100001.75;;;4.88;94.60
71573;BME280;59408;51.032;9.410;2024-01-25T04:56:41;99999.81;;;4.83;94.72
71573;BME280;59408;51.032;9.410;2024-01-25T04:59:08;100015.00;;;4.79;94.63
71573;BME280;59408;51.032;9.410;2024-01-25T05:01:34;100009.84;;;4.78;94.48
71573;BME280;59408;51.032;9.410;2024-01-25T05:04:01;100011.47;;;4.79;93.11
71573;BME280;59408;51.032;9.410;2024-01-25T05:06:28;100009.59;;;4.74;92.64
71573;BME280;59408;51.032;9.410;2024-01-25T05:08:54;100023.63;;;4.76;92.27
71573;BME280;59408;51.032;9.410;2024-01-25T05:11:21;100023.94;;;4.70;92.91
71573;BME280;59408;51.032;9.410;2024-01-25T05:13:48;100023.97;;;4.59;94.02
71573;BME280;59408;51.032;9.410;2024-01-25T05:16:15;100022.91;;;4.50;94.99
71573;BME280;59408;51.032;9.410;2024-01-25T05:18:41;100028.59;;;4.49;95.05
71573;BME280;59408;51.032;9.410;2024-01-25T05:21:08;100035.34;;;4.51;94.63
71573;BME280;59408;51.032;9.410;2024-01-25T05:23:34;100030.75;;;4.52;94.41
71573;BME280;59408;51.032;9.410;2024-01-25T05:26:01;100032.09;;;4.54;94.03
71573;BME280;59408;51.032;9.410;2024-01-25T05:28:28;100030.47;;;4.48;94.25
71573;BME280;59408;51.032;9.410;2024-01-25T05:30:55;100030.81;;;4.37;95.50
71573;BME280;59408;51.032;9.410;2024-01-25T05:33:22;100021.34;;;4.34;95.67
71573;BME280;59408;51.032;9.410;2024-01-25T05:35:49;100039.16;;;4.30;95.87
71573;BME280;59408;51.032;9.410;2024-01-25T05:38:16;100031.34;;;4.34;94.95
71573;BME280;59408;51.032;9.410;2024-01-25T05:40:43;100030.53;;;4.33;94.30
71573;BME280;59408;51.032;9.410;2024-01-25T05:43:10;100039.97;;;4.36;93.05
71573;BME280;59408;51.032;9.410;2024-01-25T05:45:36;100047.53;;;4.34;92.56
71573;BME280;59408;51.032;9.410;2024-01-25T05:48:05;100056.44;;;4.34;92.06
71573;BME280;59408;51.032;9.410;2024-01-25T05:50:32;100053.75;;;4.29;92.32
71573;BME280;59408;51.032;9.410;2024-01-25T05:52:58;100064.03;;;4.27;92.51
71573;BME280;59408;51.032;9.410;2024-01-25T05:55:24;100057.81;;;4.16;93.32
71573;BME280;59408;51.032;9.410;2024-01-25T05:57:51;100062.97;;;4.18;92.93
71573;BME280;59408;51.032;9.410;2024-01-25T06:00:18;100064.03;;;4.12;93.35
71573;BME280;59408;51.032;9.410;2024-01-25T06:02:47;100068.34;;;4.13;93.08
71573;BME280;59408;51.032;9.410;2024-01-25T06:05:15;100060.78;;;4.05;93.50
71573;BME280;59408;51.032;9.410;2024-01-25T06:07:41;100063.75;;;4.03;93.67
71573;BME280;59408;51.032;9.410;2024-01-25T06:10:09;100065.38;;;4.04;93.13
71573;BME280;59408;51.032;9.410;2024-01-25T06:12:36;100066.75;;;4.07;92.86
71573;BME280;59408;51.032;9.410;2024-01-25T06:15:03;100067.81;;;3.96;93.60
71573;BME280;59408;51.032;9.410;2024-01-25T06:17:30;100051.34;;;3.92;93.76
71573;BME280;59408;51.032;9.410;2024-01-25T06:19:57;100055.69;;;3.98;92.73
71573;BME280;59408;51.032;9.410;2024-01-25T06:22:25;100051.91;;;3.89;93.04
71573;BME280;59408;51.032;9.410;2024-01-25T06:24:52;100067.25;;;3.83;93.18
71573;BME280;59408;51.032;9.410;2024-01-25T06:27:18;100075.63;;;3.77;93.85
71573;BME280;59408;51.032;9.410;2024-01-25T06:29:45;100091.28;;;3.70;94.09
71573;BME280;59408;51.032;9.410;2024-01-25T06:32:11;100088.28;;;3.61;94.71
71573;BME280;59408;51.032;9.410;2024-01-25T06:34:47;100096.13;;;3.63;94.49
71573;BME280;59408;51.032;9.410;2024-01-25T06:37:45;100107.16;;;3.56;94.76
71573;BME280;59408;51.032;9.410;2024-01-25T06:40:12;100106.34;;;3.50;94.69
71573;BME280;59408;51.032;9.410;2024-01-25T06:42:39;100124.09;;;3.46;94.59
71573;BME280;59408;51.032;9.410;2024-01-25T06:45:05;100123.03;;;3.47;94.04
71573;BME280;59408;51.032;9.410;2024-01-25T06:47:32;100122.53;;;3.45;93.92
71573;BME280;59408;51.032;9.410;2024-01-25T06:49:59;100126.81;;;3.46;94.64
71573;BME280;59408;51.032;9.410;2024-01-25T06:52:26;100146.53;;;3.52;93.72
71573;BME280;59408;51.032;9.410;2024-01-25T06:54:56;100139.00;;;3.54;93.42
71573;BME280;59408;51.032;9.410;2024-01-25T06:57:23;100130.31;;;3.47;93.99
71573;BME280;59408;51.032;9.410;2024-01-25T06:59:49;100133.81;;;3.47;94.15
71573;BME280;59408;51.032;9.410;2024-01-25T07:02:17;100128.44;;;3.42;94.54
71573;BME280;59408;51.032;9.410;2024-01-25T07:04:45;100133.78;;;3.37;94.72
71573;BME280;59408;51.032;9.410;2024-01-25T07:07:12;100121.91;;;3.28;95.28
71573;BME280;59408;51.032;9.410;2024-01-25T07:09:38;100131.28;;;3.16;95.94
71573;BME280;59408;51.032;9.410;2024-01-25T07:12:06;100129.06;;;3.02;97.09
71573;BME280;59408;51.032;9.410;2024-01-25T07:14:33;100132.50;;;2.93;97.46
71573;BME280;59408;51.032;9.410;2024-01-25T07:17:00;100126.81;;;2.84;98.08
71573;BME280;59408;51.032;9.410;2024-01-25T07:19:26;100139.19;;;2.80;98.52
71573;BME280;59408;51.032;9.410;2024-01-25T07:21:53;100139.59;;;3.04;96.83
71573;BME280;59408;51.032;9.410;2024-01-25T07:24:19;100141.41;;;2.93;97.52
71573;BME280;59408;51.032;9.410;2024-01-25T07:26:46;100145.72;;;2.94;97.91
71573;BME280;59408;51.032;9.410;2024-01-25T07:29:13;100147.03;;;2.87;98.26
71573;BME280;59408;51.032;9.410;2024-01-25T07:31:40;100154.56;;;2.80;99.21
71573;BME280;59408;51.032;9.410;2024-01-25T07:34:06;100153.22;;;2.82;99.47
71573;BME280;59408;51.032;9.410;2024-01-25T07:36:33;100159.69;;;2.86;98.80
71573;BME280;59408;51.032;9.410;2024-01-25T07:38:59;100163.47;;;2.85;99.17
71573;BME280;59408;51.032;9.410;2024-01-25T07:41:26;100157.25;;;2.85;99.42
71573;BME280;59408;51.032;9.410;2024-01-25T07:43:53;100169.09;;;2.79;99.71
71573;BME280;59408;51.032;9.410;2024-01-25T07:46:21;100187.13;;;2.73;100.00
71573;BME280;59408;51.032;9.410;2024-01-25T07:48:47;100181.66;;;2.68;100.00
71573;BME280;59408;51.032;9.410;2024-01-25T07:51:14;100185.75;;;2.75;100.00
71573;BME280;59408;51.032;9.410;2024-01-25T07:53:41;100199.03;;;2.82;100.00
71573;BME280;59408;51.032;9.410;2024-01-25T07:56:07;100198.25;;;2.87;99.79
71573;BME280;59408;51.032;9.410;2024-01-25T07:58:35;100198.00;;;2.93;99.92
71573;BME280;59408;51.032;9.410;2024-01-25T08:01:03;100188.63;;;3.01;99.07
71573;BME280;59408;51.032;9.410;2024-01-25T08:03:31;100200.00;;;3.08;98.87
71573;BME280;59408;51.032;9.410;2024-01-25T08:05:58;100198.38;;;3.07;98.86
71573;BME280;59408;51.032;9.410;2024-01-25T08:08:25;100204.56;;;3.07;99.09
71573;BME280;59408;51.032;9.410;2024-01-25T08:10:51;100194.59;;;3.08;98.45
71573;BME280;59408;51.032;9.410;2024-01-25T08:13:17;100194.66;;;3.18;97.91
71573;BME280;59408;51.032;9.410;2024-01-25T08:15:44;100195.75;;;3.22;97.69
71573;BME280;59408;51.032;9.410;2024-01-25T08:18:11;100192.78;;;3.24;97.88
71573;BME280;59408;51.032;9.410;2024-01-25T08:20:39;100194.97;;;3.27;97.60
71573;BME280;59408;51.032;9.410;2024-01-25T08:23:06;100193.91;;;3.28;97.41
71573;BME280;59408;51.032;9.410;2024-01-25T08:25:32;100190.09;;;3.29;98.10
71573;BME280;59408;51.032;9.410;2024-01-25T08:27:59;100191.22;;;3.28;98.28
71573;BME280;59408;51.032;9.410;2024-01-25T08:30:26;100198.75;;;3.26;98.33
71573;BME280;59408;51.032;9.410;2024-01-25T08:32:52;100192.81;;;3.29;98.19
71573;BME280;59408;51.032;9.410;2024-01-25T08:35:19;100201.44;;;3.31;98.34
71573;BME280;59408;51.032;9.410;2024-01-25T08:37:48;100200.69;;;3.35;98.53
71573;BME280;59408;51.032;9.410;2024-01-25T08:40:15;100199.38;;;3.43;97.87
71573;BME280;59408;51.032;9.410;2024-01-25T08:42:41;100206.13;;;3.50;98.33
71573;BME280;59408;51.032;9.410;2024-01-25T08:45:08;100212.13;;;3.63;97.45
71573;BME280;59408;51.032;9.410;2024-01-25T08:47:34;100218.91;;;3.70;98.22
71573;BME280;59408;51.032;9.410;2024-01-25T08:50:01;100225.41;;;3.84;97.37
71573;BME280;59408;51.032;9.410;2024-01-25T08:52:28;100231.94;;;3.99;96.52
71573;BME280;59408;51.032;9.410;2024-01-25T08:54:56;100235.47;;;4.19;95.80
71573;BME280;59408;51.032;9.410;2024-01-25T08:57:22;100238.50;;;4.33;94.63
71573;BME280;59408;51.032;9.410;2024-01-25T08:59:49;100234.16;;;4.37;94.53
71573;BME280;59408;51.032;9.410;2024-01-25T09:02:16;100226.34;;;4.46;93.60
71573;BME280;59408;51.032;9.410;2024-01-25T09:04:42;100227.72;;;4.53;93.45
71573;BME280;59408;51.032;9.410;2024-01-25T09:07:09;100222.56;;;4.57;93.98
71573;BME280;59408;51.032;9.410;2024-01-25T09:09:35;100227.16;;;4.56;94.17
71573;BME280;59408;51.032;9.410;2024-01-25T09:12:05;100228.50;;;4.49;93.66
71573;BME280;59408;51.032;9.410;2024-01-25T09:14:32;100217.97;;;4.47;94.52
71573;BME280;59408;51.032;9.410;2024-01-25T09:16:58;100222.28;;;4.43;94.97
71573;BME280;59408;51.032;9.410;2024-01-25T09:19:25;100218.78;;;4.48;94.83
71573;BME280;59408;51.032;9.410;2024-01-25T09:21:51;100224.44;;;4.46;95.79
71573;BME280;59408;51.032;9.410;2024-01-25T09:24:18;100243.34;;;4.46;95.72
71573;BME280;59408;51.032;9.410;2024-01-25T09:26:44;100243.09;;;4.48;96.74
71573;BME280;59408;51.032;9.410;2024-01-25T09:29:12;100241.22;;;4.53;96.16
71573;BME280;59408;51.032;9.410;2024-01-25T09:31:39;100247.72;;;4.62;95.77
71573;BME280;59408;51.032;9.410;2024-01-25T09:34:06;100246.34;;;4.70;95.57
71573;BME280;59408;51.032;9.410;2024-01-25T09:36:33;100253.09;;;4.83;95.07
71573;BME280;59408;51.032;9.410;2024-01-25T09:39:00;100257.44;;;4.94;93.75
71573;BME280;59408;51.032;9.410;2024-01-25T09:41:27;100255.28;;;5.06;93.70
71573;BME280;59408;51.032;9.410;2024-01-25T09:43:53;100253.66;;;5.15;92.04
71573;BME280;59408;51.032;9.410;2024-01-25T09:46:22;100260.09;;;5.29;92.21
71573;BME280;59408;51.032;9.410;2024-01-25T09:48:49;100259.56;;;5.32;91.00
71573;BME280;59408;51.032;9.410;2024-01-25T09:51:17;100260.66;;;5.36;90.62
71573;BME280;59408;51.032;9.410;2024-01-25T09:53:45;100260.34;;;5.38;90.64
71573;BME280;59408;51.032;9.410;2024-01-25T09:56:17;100262.22;;;5.48;89.70
71573;BME280;59408;51.032;9.410;2024-01-25T09:58:46;100267.63;;;5.48;89.22
71573;BME280;59408;51.032;9.410;2024-01-25T10:01:14;100257.59;;;5.58;88.75
71573;BME280;59408;51.032;9.410;2024-01-25T10:03:43;100263.81;;;5.59;88.76
71573;BME280;59408;51.032;9.410;2024-01-25T10:06:11;100264.91;;;5.63;88.29
71573;BME280;59408;51.032;9.410;2024-01-25T10:08:38;100274.09;;;5.62;87.90
71573;BME280;59408;51.032;9.410;2024-01-25T10:11:04;100268.66;;;5.72;88.85
71573;BME280;59408;51.032;9.410;2024-01-25T10:13:31;100264.88;;;5.68;88.69
71573;BME280;59408;51.032;9.410;2024-01-25T10:15:58;100272.19;;;5.72;87.76
71573;BME280;59408;51.032;9.410;2024-01-25T10:18:25;100280.31;;;5.67;89.09
71573;BME280;59408;51.032;9.410;2024-01-25T10:20:57;100278.13;;;5.69;88.17
71573;BME280;59408;51.032;9.410;2024-01-25T10:23:24;100281.66;;;5.65;88.40
71573;BME280;59408;51.032;9.410;2024-01-25T10:25:51;100286.25;;;5.69;87.90
71573;BME280;59408;51.032;9.410;2024-01-25T10:28:17;100287.03;;;5.75;88.28
71573;BME280;59408;51.032;9.410;2024-01-25T10:30:44;100290.25;;;5.87;87.70
71573;BME280;59408;51.032;9.410;2024-01-25T10:33:11;100292.69;;;5.89;88.09
71573;BME280;59408;51.032;9.410;2024-01-25T10:35:39;100307.56;;;5.91;87.20
71573;BME280;59408;51.032;9.410;2024-01-25T10:38:08;100301.91;;;5.88;88.34
71573;BME280;59408;51.032;9.410;2024-01-25T10:40:34;100314.09;;;5.80;88.21
71573;BME280;59408;51.032;9.410;2024-01-25T10:43:02;100307.06;;;5.74;88.10
71573;BME280;59408;51.032;9.410;2024-01-25T10:45:28;100316.00;;;5.74;88.45
71573;BME280;59408;51.032;9.410;2024-01-25T10:47:56;100313.28;;;5.74;88.95
71573;BME280;59408;51.032;9.410;2024-01-25T10:50:22;100312.47;;;5.79;88.84
71573;BME280;59408;51.032;9.410;2024-01-25T10:52:49;100307.34;;;5.78;89.00
71573;BME280;59408;51.032;9.410;2024-01-25T10:55:17;100302.16;;;5.91;89.79
71573;BME280;59408;51.032;9.410;2024-01-25T10:57:45;100298.66;;;5.91;88.89
71573;BME280;59408;51.032;9.410;2024-01-25T11:00:13;100288.31;;;5.98;89.21
71573;BME280;59408;51.032;9.410;2024-01-25T11:02:41;100284.53;;;5.99;88.62
71573;BME280;59408;51.032;9.410;2024-01-25T11:05:12;100281.53;;;5.95;89.44
71573;BME280;59408;51.032;9.410;2024-01-25T11:07:42;100270.94;;;6.04;89.37
71573;BME280;59408;51.032;9.410;2024-01-25T11:10:13;100275.03;;;5.96;86.74
71573;BME280;59408;51.032;9.410;2024-01-25T11:12:51;100277.44;;;6.03;86.74
71573;BME280;59408;51.032;9.410;2024-01-25T11:15:21;100279.91;;;5.99;86.21
71573;BME280;59408;51.032;9.410;2024-01-25T11:17:52;100275.56;;;6.03;86.99
71573;BME280;59408;51.032;9.410;2024-01-25T11:20:23;100276.34;;;6.09;86.63
71573;BME280;59408;51.032;9.410;2024-01-25T11:22:55;100275.22;;;6.15;85.61
71573;BME280;59408;51.032;9.410;2024-01-25T11:25:22;100266.81;;;6.17;86.48
71573;BME280;59408;51.032;9.410;2024-01-25T11:27:50;100276.25;;;6.24;85.71
71573;BME280;59408;51.032;9.410;2024-01-25T11:30:18;100272.47;;;6.20;85.41
71573;BME280;59408;51.032;9.410;2024-01-25T11:32:45;100271.75;;;6.09;85.01
71573;BME280;59408;51.032;9.410;2024-01-25T11:35:12;100259.31;;;6.03;86.53
71573;BME280;59408;51.032;9.410;2024-01-25T11:37:39;100269.53;;;6.17;87.14
71573;BME280;59408;51.032;9.410;2024-01-25T11:40:07;100259.19;;;6.24;86.13
71573;BME280;59408;51.032;9.410;2024-01-25T11:42:34;100265.47;;;6.19;85.19
71573;BME280;59408;51.032;9.410;2024-01-25T11:45:02;100273.28;;;6.26;85.83
71573;BME280;59408;51.032;9.410;2024-01-25T11:47:29;100262.94;;;6.33;87.20
71573;BME280;59408;51.032;9.410;2024-01-25T11:49:55;100271.88;;;6.33;87.42
71573;BME280;59408;51.032;9.410;2024-01-25T11:52:22;100271.59;;;6.35;86.37
71573;BME280;59408;51.032;9.410;2024-01-25T11:54:48;100266.13;;;6.40;87.23
71573;BME280;59408;51.032;9.410;2024-01-25T11:57:15;100261.19;;;6.47;87.15
71573;BME280;59408;51.032;9.410;2024-01-25T11:59:41;100265.84;;;6.41;87.47
71573;BME280;59408;51.032;9.410;2024-01-25T12:02:09;100264.16;;;6.50;88.37
71573;BME280;59408;51.032;9.410;2024-01-25T12:04:36;100254.75;;;6.38;87.11
71573;BME280;59408;51.032;9.410;2024-01-25T12:07:03;100247.22;;;6.35;86.33
71573;BME280;59408;51.032;9.410;2024-01-25T12:09:30;100254.47;;;6.39;87.00
71573;BME280;59408;51.032;9.410;2024-01-25T12:11:57;100250.97;;;6.39;86.78
71573;BME280;59408;51.032;9.410;2024-01-25T12:14:23;100251.78;;;6.39;85.94
71573;BME280;59408;51.032;9.410;2024-01-25T12:16:50;100245.03;;;6.37;85.62
71573;BME280;59408;51.032;9.410;2024-01-25T12:19:18;100239.50;;;6.52;86.24
71573;BME280;59408;51.032;9.410;2024-01-25T12:21:44;100219.44;;;6.53;84.95
71573;BME280;59408;51.032;9.410;2024-01-25T12:24:12;100206.09;;;6.62;84.18
71573;BME280;59408;51.032;9.410;2024-01-25T12:26:38;100213.59;;;6.70;83.50
71573;BME280;59408;51.032;9.410;2024-01-25T12:29:05;100213.13;;;6.63;82.65
71573;BME280;59408;51.032;9.410;2024-01-25T12:31:31;100223.38;;;6.66;84.21
71573;BME280;59408;51.032;9.410;2024-01-25T12:33:59;100229.94;;;6.60;83.76
71573;BME280;59408;51.032;9.410;2024-01-25T12:36:28;100227.50;;;6.58;83.46
71573;BME280;59408;51.032;9.410;2024-01-25T12:38:54;100229.94;;;6.65;83.48
71573;BME280;59408;51.032;9.410;2024-01-25T12:41:20;100224.50;;;6.65;82.26
71573;BME280;59408;51.032;9.410;2024-01-25T12:43:48;100225.25;;;6.70;83.38
71573;BME280;59408;51.032;9.410;2024-01-25T12:46:15;100230.19;;;6.63;82.28
71573;BME280;59408;51.032;9.410;2024-01-25T12:48:52;100214.97;;;6.67;81.70
71573;BME280;59408;51.032;9.410;2024-01-25T12:51:19;100214.69;;;6.69;81.62
71573;BME280;59408;51.032;9.410;2024-01-25T12:53:47;100211.44;;;6.67;82.38
71573;BME280;59408;51.032;9.410;2024-01-25T12:56:15;100215.78;;;6.68;82.54
71573;BME280;59408;51.032;9.410;2024-01-25T12:58:41;100206.38;;;6.60;82.49
71573;BME280;59408;51.032;9.410;2024-01-25T13:01:09;100197.13;;;6.61;82.00
71573;BME280;59408;51.032;9.410;2024-01-25T13:03:35;100196.81;;;6.68;82.86